createdAt,value
2018-07-17T00:00:58.657Z,21.04
2018-07-17T00:01:58.652Z,20.98
2018-07-17T00:02:58.664Z,20.99
2018-07-17T00:03:58.651Z,20.92
2018-07-17T00:04:58.650Z,20.95
2018-07-17T00:05:58.664Z,20.98
2018-07-17T00:06:58.661Z,21.01
2018-07-17T00:07:58.716Z,20.89
2018-07-17T00:08:58.671Z,20.87
2018-07-17T00:09:58.667Z,20.88
2018-07-17T00:10:58.729Z,20.89
2018-07-17T00:11:58.683Z,20.82
2018-07-17T00:12:58.675Z,20.88
2018-07-17T00:13:58.705Z,20.88
2018-07-17T00:14:58.704Z,20.87
2018-07-17T00:15:58.700Z,20.87
2018-07-17T00:16:58.702Z,20.82
2018-07-17T00:17:58.714Z,20.82
2018-07-17T00:18:58.716Z,20.66
2018-07-17T00:19:58.709Z,20.67
2018-07-17T00:20:58.715Z,20.74
2018-07-17T00:21:58.718Z,20.61
2018-07-17T00:22:58.728Z,20.62
2018-07-17T00:23:58.762Z,20.54
2018-07-17T00:24:58.729Z,20.41
2018-07-17T00:25:58.746Z,20.38
2018-07-17T00:26:58.725Z,20.41
2018-07-17T00:27:58.741Z,20.35
2018-07-17T00:28:58.747Z,20.41
2018-07-17T00:29:58.743Z,20.41
2018-07-17T00:30:58.754Z,20.39
2018-07-17T00:31:58.760Z,20.41
2018-07-17T00:32:58.754Z,20.38
2018-07-17T00:33:58.774Z,20.36
2018-07-17T00:34:58.757Z,20.39
2018-07-17T00:35:58.763Z,20.33
2018-07-17T00:36:58.781Z,20.31
2018-07-17T00:37:58.768Z,20.32
2018-07-17T00:38:58.784Z,20.32
2018-07-17T00:39:58.778Z,20.29
2018-07-17T00:40:58.783Z,20.35
2018-07-17T00:41:58.790Z,20.32
2018-07-17T00:42:58.780Z,20.32
2018-07-17T00:43:58.788Z,20.38
2018-07-17T00:44:58.802Z,20.35
2018-07-17T00:45:58.806Z,20.31
2018-07-17T00:46:58.879Z,20.26
2018-07-17T00:47:58.809Z,20.26
2018-07-17T00:48:58.811Z,20.23
2018-07-17T00:49:58.817Z,20.23
2018-07-17T00:50:58.822Z,20.08
2018-07-17T00:51:58.826Z,20.13
2018-07-17T00:52:58.826Z,20.14
2018-07-17T00:53:58.835Z,20.17
2018-07-17T00:54:58.832Z,20.14
2018-07-17T00:55:58.836Z,20.06
2018-07-17T00:56:58.839Z,20.11
2018-07-17T00:57:58.842Z,20.16
2018-07-17T00:58:58.860Z,20.03
2018-07-17T00:59:58.849Z,20.18
2018-07-17T01:00:58.861Z,20.11
2018-07-17T01:02:13.848Z,20.10
2018-07-17T01:12:45.506Z,19.92
2018-07-17T01:13:11.919Z,19.92
2018-07-17T01:14:11.421Z,19.81
2018-07-17T01:15:10.928Z,19.86
2018-07-17T01:16:10.924Z,19.88
2018-07-17T01:17:12.497Z,19.80
2018-07-17T01:18:11.924Z,19.86
2018-07-17T01:19:14.932Z,19.76
2018-07-17T01:20:09.955Z,19.78
2018-07-17T01:21:09.973Z,19.71
2018-07-17T01:22:09.975Z,19.66
2018-07-17T01:23:09.971Z,19.74
2018-07-17T01:24:09.961Z,19.61
2018-07-17T01:25:09.966Z,19.48
2018-07-17T01:26:09.972Z,19.59
2018-07-17T01:27:09.991Z,19.44
2018-07-17T01:28:10.000Z,19.51
2018-07-17T01:29:09.985Z,19.56
2018-07-17T01:30:10.029Z,19.48
2018-07-17T01:31:10.026Z,19.46
2018-07-17T01:32:09.996Z,19.41
2018-07-17T01:33:09.996Z,19.33
2018-07-17T01:34:09.998Z,19.43
2018-07-17T01:35:10.016Z,19.40
2018-07-17T01:36:10.005Z,19.41
2018-07-17T01:37:10.003Z,19.41
2018-07-17T01:38:10.016Z,19.44
2018-07-17T01:39:10.011Z,19.48
2018-07-17T01:40:10.062Z,19.51
2018-07-17T01:41:10.028Z,19.54
2018-07-17T01:42:10.058Z,19.56
2018-07-17T01:43:10.032Z,19.48
2018-07-17T01:44:10.029Z,19.46
2018-07-17T01:45:10.043Z,19.36
2018-07-17T01:46:10.033Z,19.43
2018-07-17T01:47:10.042Z,19.39
2018-07-17T01:48:10.048Z,19.37
2018-07-17T01:49:10.051Z,19.40
2018-07-17T01:50:10.054Z,19.39
2018-07-17T01:51:10.055Z,19.40
2018-07-17T01:52:10.057Z,19.47
2018-07-17T01:53:10.942Z,19.46
2018-07-17T01:54:10.062Z,19.41
2018-07-17T01:55:10.077Z,19.37
2018-07-17T01:56:10.074Z,19.36
2018-07-17T01:57:10.080Z,19.36
2018-07-17T01:58:10.121Z,19.28
2018-07-17T01:59:10.088Z,19.43
2018-07-17T02:00:10.076Z,19.26
2018-07-17T02:01:10.083Z,19.33
2018-07-17T02:02:10.101Z,19.31
2018-07-17T02:03:10.099Z,19.28
2018-07-17T02:04:10.099Z,19.21
2018-07-17T02:05:10.097Z,19.22
2018-07-17T02:06:10.118Z,19.13
2018-07-17T02:07:10.102Z,19.16
2018-07-17T02:08:10.098Z,19.14
2018-07-17T02:09:10.119Z,19.22
2018-07-17T02:10:10.114Z,19.22
2018-07-17T02:11:10.129Z,19.16
2018-07-17T02:12:10.131Z,19.10
2018-07-17T02:13:10.120Z,19.04
2018-07-17T02:14:10.149Z,19.10
2018-07-17T02:15:10.153Z,19.04
2018-07-17T02:16:10.135Z,19.08
2018-07-17T02:17:10.138Z,19.10
2018-07-17T02:18:10.140Z,19.08
2018-07-17T02:19:10.145Z,19.14
2018-07-17T02:20:10.138Z,19.11
2018-07-17T02:21:10.175Z,19.06
2018-07-17T02:22:10.142Z,18.95
2018-07-17T02:23:10.158Z,18.99
2018-07-17T02:24:10.161Z,18.95
2018-07-17T02:25:10.166Z,18.95
2018-07-17T02:26:10.161Z,18.95
2018-07-17T02:27:10.166Z,18.95
2018-07-17T02:28:10.180Z,18.91
2018-07-17T02:29:10.189Z,18.81
2018-07-17T02:30:10.216Z,18.90
2018-07-17T02:31:12.022Z,18.82
2018-07-17T02:32:10.187Z,18.81
2018-07-17T02:33:10.183Z,18.75
2018-07-17T02:34:10.227Z,18.75
2018-07-17T02:35:10.194Z,18.67
2018-07-17T02:36:10.202Z,18.73
2018-07-17T02:37:10.193Z,18.75
2018-07-17T02:38:10.209Z,18.76
2018-07-17T02:39:10.200Z,18.78
2018-07-17T02:40:10.224Z,18.75
2018-07-17T02:41:10.218Z,18.84
2018-07-17T02:42:10.283Z,18.84
2018-07-17T02:43:10.218Z,18.87
2018-07-17T02:44:10.218Z,18.85
2018-07-17T02:45:10.226Z,18.80
2018-07-17T02:46:10.233Z,18.87
2018-07-17T02:47:10.266Z,18.73
2018-07-17T02:48:10.221Z,18.81
2018-07-17T02:49:10.272Z,18.81
2018-07-17T02:50:10.236Z,18.70
2018-07-17T02:51:10.229Z,18.72
2018-07-17T02:52:10.245Z,18.72
2018-07-17T02:53:10.261Z,18.73
2018-07-17T02:54:10.255Z,18.67
2018-07-17T02:55:10.273Z,18.67
2018-07-17T02:56:10.251Z,18.67
2018-07-17T02:57:10.270Z,18.54
2018-07-17T02:58:10.277Z,18.51
2018-07-17T02:59:10.291Z,18.48
2018-07-17T03:00:10.270Z,18.45
2018-07-17T03:01:10.275Z,18.62
2018-07-17T03:02:10.279Z,18.52
2018-07-17T03:03:10.274Z,18.60
2018-07-17T03:04:10.273Z,18.50
2018-07-17T03:05:10.274Z,18.55
2018-07-17T03:06:10.289Z,18.54
2018-07-17T03:07:10.401Z,18.55
2018-07-17T03:08:10.303Z,18.57
2018-07-17T03:09:10.294Z,18.52
2018-07-17T03:10:10.304Z,18.44
2018-07-17T03:11:10.298Z,18.39
2018-07-17T03:12:10.309Z,18.30
2018-07-17T03:13:10.313Z,18.26
2018-07-17T03:14:10.308Z,18.37
2018-07-17T03:15:10.406Z,18.27
2018-07-17T03:16:10.323Z,18.36
2018-07-17T03:17:10.326Z,18.37
2018-07-17T03:18:10.331Z,18.41
2018-07-17T03:19:10.332Z,18.41
2018-07-17T03:20:10.343Z,18.44
2018-07-17T03:21:10.333Z,18.41
2018-07-17T03:22:10.329Z,18.39
2018-07-17T03:23:10.333Z,18.32
2018-07-17T03:24:10.332Z,18.35
2018-07-17T03:25:10.342Z,18.37
2018-07-17T03:26:10.350Z,18.41
2018-07-17T03:27:10.343Z,18.35
2018-07-17T03:28:10.420Z,18.35
2018-07-17T03:29:10.379Z,18.32
2018-07-17T03:30:10.374Z,18.36
2018-07-17T03:31:10.370Z,18.27
2018-07-17T03:32:10.367Z,18.26
2018-07-17T03:33:10.359Z,18.32
2018-07-17T03:34:10.366Z,18.26
2018-07-17T03:35:10.369Z,18.32
2018-07-17T03:36:10.373Z,18.35
2018-07-17T03:37:10.394Z,18.32
2018-07-17T03:38:10.380Z,18.32
2018-07-17T03:39:10.388Z,18.30
2018-07-17T03:40:10.388Z,18.27
2018-07-17T03:41:10.404Z,18.21
2018-07-17T03:42:10.404Z,18.27
2018-07-17T03:43:10.415Z,18.23
2018-07-17T03:44:10.395Z,18.27
2018-07-17T03:45:10.389Z,18.27
2018-07-17T03:46:10.414Z,18.18
2018-07-17T03:47:10.402Z,18.21
2018-07-17T03:48:10.413Z,18.27
2018-07-17T03:49:10.410Z,18.26
2018-07-17T03:50:10.412Z,18.18
2018-07-17T03:51:10.421Z,18.30
2018-07-17T03:52:10.414Z,18.26
2018-07-17T03:53:10.515Z,18.20
2018-07-17T03:54:10.423Z,18.21
2018-07-17T03:55:10.430Z,18.23
2018-07-17T03:56:10.443Z,18.15
2018-07-17T03:57:10.433Z,18.14
2018-07-17T03:58:10.435Z,18.10
2018-07-17T03:59:10.470Z,18.15
2018-07-17T04:00:10.435Z,18.21
2018-07-17T04:01:10.437Z,18.23
2018-07-17T04:02:10.474Z,18.11
2018-07-17T04:03:10.459Z,18.07
2018-07-17T04:04:10.530Z,17.99
2018-07-17T04:05:10.498Z,18.07
2018-07-17T04:06:10.474Z,18.05
2018-07-17T04:07:10.465Z,18.02
2018-07-17T04:08:10.469Z,18.10
2018-07-17T04:09:10.472Z,18.15
2018-07-17T04:10:10.519Z,18.18
2018-07-17T04:11:10.474Z,18.21
2018-07-17T04:12:10.478Z,18.30
2018-07-17T04:13:10.479Z,18.33
2018-07-17T04:14:10.496Z,18.30
2018-07-17T04:15:10.487Z,18.26
2018-07-17T04:16:10.493Z,18.37
2018-07-17T04:17:10.489Z,18.39
2018-07-17T04:18:10.491Z,18.47
2018-07-17T04:19:11.499Z,18.51
2018-07-17T04:20:10.496Z,18.47
2018-07-17T04:21:10.496Z,18.60
2018-07-17T04:22:10.527Z,18.66
2018-07-17T04:23:10.510Z,18.67
2018-07-17T04:24:10.516Z,18.70
2018-07-17T04:25:10.511Z,18.67
2018-07-17T04:26:10.540Z,18.76
2018-07-17T04:27:10.518Z,18.82
2018-07-17T04:28:10.527Z,18.87
2018-07-17T04:29:10.526Z,18.91
2018-07-17T04:30:10.527Z,18.92
2018-07-17T04:31:10.537Z,18.94
2018-07-17T04:32:10.567Z,18.95
2018-07-17T04:33:10.543Z,18.88
2018-07-17T04:34:10.547Z,18.85
2018-07-17T04:35:10.540Z,18.81
2018-07-17T04:36:10.557Z,18.80
2018-07-17T04:37:10.552Z,18.88
2018-07-17T04:38:10.558Z,18.98
2018-07-17T04:39:10.566Z,18.92
2018-07-17T04:40:10.560Z,18.91
2018-07-17T04:41:10.560Z,18.90
2018-07-17T04:42:10.562Z,19.06
2018-07-17T04:43:10.565Z,19.02
2018-07-17T04:44:10.641Z,19.07
2018-07-17T04:45:10.577Z,19.18
2018-07-17T04:46:10.598Z,19.14
2018-07-17T04:47:10.590Z,19.21
2018-07-17T04:48:10.590Z,19.26
2018-07-17T04:49:10.578Z,19.26
2018-07-17T04:50:10.597Z,19.29
2018-07-17T04:51:10.590Z,19.41
2018-07-17T04:52:10.618Z,19.41
2018-07-17T04:53:10.596Z,19.48
2018-07-17T04:54:10.631Z,19.43
2018-07-17T04:55:10.609Z,19.51
2018-07-17T04:56:10.608Z,19.40
2018-07-17T04:57:10.609Z,19.54
2018-07-17T04:58:10.619Z,19.51
2018-07-17T04:59:10.629Z,19.54
2018-07-17T05:00:10.632Z,19.66
2018-07-17T05:01:10.620Z,19.66
2018-07-17T05:02:10.629Z,19.73
2018-07-17T05:03:10.622Z,19.80
2018-07-17T05:04:10.636Z,19.88
2018-07-17T05:05:10.647Z,19.80
2018-07-17T05:06:10.631Z,19.88
2018-07-17T05:07:10.656Z,19.91
2018-07-17T05:08:10.652Z,19.99
2018-07-17T05:09:10.652Z,19.99
2018-07-17T05:10:10.670Z,20.13
2018-07-17T05:11:10.661Z,20.17
2018-07-17T05:12:10.652Z,20.20
2018-07-17T05:13:10.655Z,20.23
2018-07-17T05:14:10.663Z,20.35
2018-07-17T05:15:10.663Z,20.42
2018-07-17T05:16:10.826Z,20.54
2018-07-17T05:17:10.686Z,20.62
2018-07-17T05:18:10.692Z,20.57
2018-07-17T05:19:10.683Z,20.69
2018-07-17T05:20:10.702Z,20.73
2018-07-17T05:21:10.740Z,20.70
2018-07-17T05:22:10.703Z,20.89
2018-07-17T05:23:10.764Z,21.21
2018-07-17T05:24:10.689Z,22.03
2018-07-17T05:25:10.686Z,23.17
2018-07-17T05:26:10.696Z,24.47
2018-07-17T05:27:10.727Z,25.58
2018-07-17T05:28:10.697Z,26.45
2018-07-17T05:29:10.742Z,27.10
2018-07-17T05:30:10.748Z,27.72
2018-07-17T05:31:10.707Z,27.39
2018-07-17T05:32:10.714Z,27.70
2018-07-17T05:33:10.717Z,27.65
2018-07-17T05:34:10.730Z,27.63
2018-07-17T05:35:10.782Z,27.77
2018-07-17T05:36:10.724Z,28.15
2018-07-17T05:37:10.752Z,28.64
2018-07-17T05:38:10.751Z,28.90
2018-07-17T05:39:10.757Z,29.31
2018-07-17T05:40:10.758Z,29.43
2018-07-17T05:41:10.775Z,29.78
2018-07-17T05:42:10.756Z,30.26
2018-07-17T05:43:10.763Z,30.46
2018-07-17T05:44:11.526Z,30.35
2018-07-17T05:45:10.798Z,30.32
2018-07-17T05:46:10.778Z,30.64
2018-07-17T05:47:10.809Z,30.92
2018-07-17T05:48:10.789Z,30.98
2018-07-17T05:49:10.797Z,30.99
2018-07-17T05:50:10.800Z,30.86
2018-07-17T05:51:11.533Z,30.98
2018-07-17T05:52:10.832Z,31.06
2018-07-17T05:53:10.839Z,30.92
2018-07-17T05:54:10.841Z,31.17
2018-07-17T05:55:10.879Z,31.10
2018-07-17T05:56:10.868Z,30.80
2018-07-17T05:57:10.855Z,30.46
2018-07-17T05:58:10.855Z,30.73
2018-07-17T05:59:10.878Z,30.94
2018-07-17T06:00:10.876Z,30.42
2018-07-17T06:01:11.022Z,30.79
2018-07-17T06:02:10.896Z,31.17
2018-07-17T06:03:10.912Z,30.27
2018-07-17T06:04:10.938Z,31.02
2018-07-17T06:05:11.036Z,31.50
2018-07-17T06:06:10.954Z,31.57
2018-07-17T06:07:10.945Z,31.44
2018-07-17T06:08:10.944Z,30.98
2018-07-17T06:09:10.992Z,30.89
2018-07-17T06:10:10.985Z,31.12
2018-07-17T06:11:11.060Z,31.32
2018-07-17T06:12:11.002Z,31.75
2018-07-17T06:13:10.995Z,31.92
2018-07-17T06:14:11.000Z,32.04
2018-07-17T06:15:11.020Z,31.99
2018-07-17T06:16:11.023Z,31.78
2018-07-17T06:17:11.029Z,31.69
2018-07-17T06:18:11.036Z,31.21
2018-07-17T06:19:11.045Z,30.79
2018-07-17T06:20:11.052Z,30.62
2018-07-17T06:21:11.057Z,30.45
2018-07-17T06:22:11.130Z,30.72
2018-07-17T06:23:11.094Z,31.12
2018-07-17T06:24:11.149Z,31.66
2018-07-17T06:25:11.116Z,31.29
2018-07-17T06:26:11.174Z,31.35
2018-07-17T06:27:11.123Z,31.20
2018-07-17T06:28:11.176Z,31.32
2018-07-17T06:29:11.146Z,31.56
2018-07-17T06:30:11.167Z,31.32
2018-07-17T06:31:11.177Z,30.73
2018-07-17T06:32:11.202Z,31.34
2018-07-17T06:33:11.188Z,31.21
2018-07-17T06:34:11.194Z,31.56
2018-07-17T06:35:11.231Z,31.69
2018-07-17T06:36:11.228Z,32.00
2018-07-17T06:37:11.245Z,31.86
2018-07-17T06:38:11.245Z,32.00
2018-07-17T06:39:11.280Z,31.75
2018-07-17T06:40:11.293Z,32.04
2018-07-17T06:41:11.276Z,32.28
2018-07-17T06:42:11.326Z,32.57
2018-07-17T06:43:11.306Z,33.12
2018-07-17T06:44:11.315Z,33.06
2018-07-17T06:45:11.335Z,33.00
2018-07-17T06:46:11.353Z,32.78
2018-07-17T06:47:11.361Z,32.10
2018-07-17T06:48:11.450Z,32.25
2018-07-17T06:49:12.067Z,32.97
2018-07-17T06:50:11.433Z,33.63
2018-07-17T06:51:14.135Z,33.84
2018-07-17T06:52:11.401Z,34.22
2018-07-17T06:53:11.458Z,33.61
2018-07-17T06:54:11.442Z,33.23
2018-07-17T06:55:11.475Z,32.87
2018-07-17T06:56:11.461Z,32.87
2018-07-17T06:57:11.473Z,32.66
2018-07-17T06:58:11.503Z,32.56
2018-07-17T06:59:11.595Z,32.75
2018-07-17T07:00:11.529Z,32.63
2018-07-17T07:01:11.527Z,33.04
2018-07-17T07:02:11.565Z,33.01
2018-07-17T07:03:11.546Z,33.41
2018-07-17T07:04:11.590Z,33.93
2018-07-17T07:05:11.640Z,34.27
2018-07-17T07:06:11.720Z,34.44
2018-07-17T07:07:11.720Z,34.58
2018-07-17T07:08:11.645Z,33.88
2018-07-17T07:09:11.731Z,34.30
2018-07-17T07:10:11.647Z,34.66
2018-07-17T07:11:11.682Z,34.69
2018-07-17T07:12:11.723Z,33.68
2018-07-17T07:13:11.684Z,34.72
2018-07-17T07:14:11.775Z,34.78
2018-07-17T07:15:11.713Z,34.66
2018-07-17T07:16:11.722Z,34.92
2018-07-17T07:17:11.822Z,34.53
2018-07-17T07:18:11.820Z,34.92
2018-07-17T07:19:11.781Z,34.85
2018-07-17T07:20:11.783Z,34.56
2018-07-17T07:21:11.938Z,34.46
2018-07-17T07:22:11.817Z,34.53
2018-07-17T07:23:11.892Z,34.19
2018-07-17T07:24:11.862Z,34.25
2018-07-17T07:25:11.843Z,34.25
2018-07-17T07:26:11.890Z,34.19
2018-07-17T07:27:12.036Z,33.65
2018-07-17T07:28:14.704Z,34.27
2018-07-17T07:29:11.975Z,34.73
2018-07-17T07:30:11.980Z,34.12
2018-07-17T07:31:11.952Z,33.91
2018-07-17T07:32:11.965Z,34.28
2018-07-17T07:33:11.976Z,34.02
2018-07-17T07:34:12.001Z,34.16
2018-07-17T07:35:12.007Z,34.58
2018-07-17T07:36:12.086Z,34.82
2018-07-17T07:37:12.041Z,35.09
2018-07-17T07:38:12.108Z,34.77
2018-07-17T07:39:12.077Z,34.59
2018-07-17T07:40:12.169Z,34.21
2018-07-17T07:41:12.107Z,34.75
2018-07-17T07:42:12.113Z,35.58
2018-07-17T07:43:12.178Z,35.94
2018-07-17T07:44:12.164Z,35.75
2018-07-17T07:45:12.208Z,36.08
2018-07-17T07:46:12.183Z,35.93
2018-07-17T07:47:12.220Z,35.89
2018-07-17T07:48:12.213Z,35.81
2018-07-17T07:49:12.371Z,35.52
2018-07-17T07:50:13.110Z,35.41
2018-07-17T07:51:12.285Z,35.18
2018-07-17T07:52:12.314Z,35.25
2018-07-17T07:53:12.437Z,34.91
2018-07-17T07:54:12.322Z,34.58
2018-07-17T07:55:12.446Z,34.21
2018-07-17T07:56:12.370Z,34.59
2018-07-17T07:57:12.405Z,34.66
2018-07-17T07:58:12.426Z,34.31
2018-07-17T07:59:12.530Z,33.95
2018-07-17T08:00:12.432Z,34.15
2018-07-17T08:01:16.684Z,33.81
2018-07-17T08:02:12.643Z,34.64
2018-07-17T08:03:12.503Z,35.19
2018-07-17T08:04:12.629Z,34.50
2018-07-17T08:05:12.516Z,34.69
2018-07-17T08:06:12.553Z,34.77
2018-07-17T08:07:12.730Z,35.19
2018-07-17T08:08:12.572Z,35.16
2018-07-17T08:09:13.205Z,35.59
2018-07-17T08:10:12.675Z,35.82
2018-07-17T08:11:12.604Z,36.60
2018-07-17T08:12:12.789Z,35.74
2018-07-17T08:13:12.860Z,35.19
2018-07-17T08:14:12.710Z,35.65
2018-07-17T08:15:12.732Z,35.15
2018-07-17T08:16:12.842Z,34.64
2018-07-17T08:17:12.989Z,35.14
2018-07-17T08:18:12.742Z,35.71
2018-07-17T08:19:12.800Z,35.71
2018-07-17T08:20:13.643Z,35.93
2018-07-17T08:21:12.846Z,35.66
2018-07-17T08:22:13.056Z,35.77
2018-07-17T08:23:14.149Z,36.35
2018-07-17T08:24:16.198Z,37.06
2018-07-17T08:25:13.407Z,36.62
2018-07-17T08:26:13.002Z,37.03
2018-07-17T08:27:12.961Z,37.10
2018-07-17T08:28:12.930Z,36.98
2018-07-17T08:29:13.010Z,36.72
2018-07-17T08:30:13.045Z,36.47
2018-07-17T08:31:13.017Z,35.96
2018-07-17T08:32:13.046Z,36.07
2018-07-17T08:33:13.088Z,35.89
2018-07-17T08:34:13.067Z,35.65
2018-07-17T08:35:13.075Z,36.23
2018-07-17T08:36:13.101Z,36.37
2018-07-17T08:37:13.113Z,36.25
2018-07-17T08:38:13.160Z,36.12
2018-07-17T08:39:13.167Z,36.01
2018-07-17T08:40:13.192Z,35.26
2018-07-17T08:41:13.192Z,35.72
2018-07-17T08:42:13.320Z,35.45
2018-07-17T08:43:13.251Z,35.04
2018-07-17T08:44:13.289Z,35.47
2018-07-17T08:45:13.436Z,35.55
2018-07-17T08:46:13.352Z,36.44
2018-07-17T08:47:13.555Z,36.73
2018-07-17T08:48:13.357Z,36.54
2018-07-17T08:49:13.415Z,36.72
2018-07-17T08:50:13.462Z,36.13
2018-07-17T08:51:13.453Z,36.75
2018-07-17T08:52:13.446Z,36.19
2018-07-17T08:53:13.474Z,35.43
2018-07-17T08:54:13.473Z,35.14
2018-07-17T08:55:13.480Z,36.05
2018-07-17T08:56:13.512Z,36.38
2018-07-17T08:57:14.151Z,36.53
2018-07-17T08:58:14.516Z,36.35
2018-07-17T08:59:13.626Z,36.27
2018-07-17T09:00:13.687Z,35.94
2018-07-17T09:01:13.663Z,34.75
2018-07-17T09:02:13.642Z,34.34
2018-07-17T09:03:13.673Z,33.81
2018-07-17T09:04:13.740Z,33.87
2018-07-17T09:05:13.704Z,34.88
2018-07-17T09:06:14.124Z,35.82
2018-07-17T09:07:13.831Z,36.46
2018-07-17T09:08:13.750Z,36.87
2018-07-17T09:09:13.771Z,36.87
2018-07-17T09:10:14.744Z,36.49
2018-07-17T09:11:13.871Z,36.46
2018-07-17T09:12:15.659Z,36.05
2018-07-17T09:13:13.992Z,35.63
2018-07-17T09:14:13.904Z,35.96
2018-07-17T09:15:13.946Z,35.44
2018-07-17T09:16:14.016Z,35.72
2018-07-17T09:17:14.040Z,35.48
2018-07-17T09:18:13.995Z,35.62
2018-07-17T09:19:14.040Z,35.40
2018-07-17T09:20:14.044Z,35.43
2018-07-17T09:21:14.028Z,34.77
2018-07-17T09:22:14.234Z,34.78
2018-07-17T09:23:14.139Z,34.91
2018-07-17T09:24:14.154Z,35.04
2018-07-17T09:28:20.296Z,35.65
2018-07-17T09:29:20.337Z,35.71
2018-07-17T09:34:35.392Z,36.68
2018-07-17T09:35:32.451Z,36.73
2018-07-17T09:36:32.455Z,36.91
2018-07-17T09:37:35.521Z,36.95
2018-07-17T09:38:32.494Z,36.64
2018-07-17T09:39:32.521Z,36.38
2018-07-17T09:40:32.596Z,36.99
2018-07-17T09:41:32.610Z,37.94
2018-07-17T09:42:32.679Z,37.29
2018-07-17T09:43:32.649Z,38.01
2018-07-17T09:44:32.631Z,38.19
2018-07-17T09:45:32.643Z,38.65
2018-07-17T09:46:32.733Z,37.85
2018-07-17T09:47:32.749Z,37.60
2018-07-17T09:48:32.764Z,37.03
2018-07-17T09:49:33.416Z,37.13
2018-07-17T09:50:32.761Z,37.10
2018-07-17T09:51:32.789Z,36.62
2018-07-17T09:52:32.872Z,36.81
2018-07-17T09:53:32.911Z,37.07
2018-07-17T09:54:32.870Z,36.64
2018-07-17T09:55:32.934Z,36.64
2018-07-17T09:56:32.978Z,36.83
2018-07-17T09:57:33.030Z,37.17
2018-07-17T09:58:33.216Z,36.98
2018-07-17T09:59:33.036Z,36.59
2018-07-17T10:00:33.020Z,37.03
2018-07-17T10:01:33.042Z,37.18
2018-07-17T10:02:33.142Z,37.29
2018-07-17T10:03:33.438Z,36.88
2018-07-17T10:04:33.190Z,36.66
2018-07-17T10:05:33.143Z,36.98
2018-07-17T10:06:33.187Z,36.41
2018-07-17T10:07:33.202Z,36.07
2018-07-17T10:32:24.260Z,36.29
2018-07-17T10:33:24.026Z,36.34
2018-07-17T10:34:23.969Z,36.59
2018-07-17T10:35:23.936Z,36.95
2018-07-17T10:36:26.619Z,36.99
2018-07-17T10:37:23.986Z,36.81
2018-07-17T10:38:23.986Z,36.81
2018-07-17T10:39:24.015Z,37.09
2018-07-17T10:40:24.074Z,36.85
2018-07-17T10:41:24.088Z,37.03
2018-07-17T10:42:24.154Z,36.60
2018-07-17T10:43:24.102Z,36.38
2018-07-17T10:44:24.121Z,36.35
2018-07-17T10:45:24.137Z,36.25
2018-07-17T10:46:24.160Z,35.75
2018-07-17T10:47:24.249Z,35.72
2018-07-17T10:48:24.243Z,35.78
2018-07-17T10:49:24.340Z,35.09
2018-07-17T10:50:24.256Z,35.43
2018-07-17T10:51:24.261Z,35.06
2018-07-17T10:52:24.289Z,35.53
2018-07-17T10:53:24.303Z,35.33
2018-07-17T10:54:24.335Z,35.36
2018-07-17T10:55:24.377Z,35.68
2018-07-17T10:56:24.373Z,35.62
2018-07-17T10:57:24.419Z,35.66
2018-07-17T10:58:24.415Z,35.04
2018-07-17T10:59:25.046Z,34.64
2018-07-17T11:00:24.460Z,34.17
2018-07-17T11:01:24.570Z,33.91
2018-07-17T11:02:24.478Z,34.31
2018-07-17T11:03:24.516Z,34.35
2018-07-17T11:04:24.509Z,34.05
2018-07-17T11:05:24.562Z,34.12
2018-07-17T11:06:24.550Z,33.75
2018-07-17T11:07:24.565Z,34.00
2018-07-17T11:08:24.673Z,33.65
2018-07-17T11:09:24.695Z,33.68
2018-07-17T11:10:24.638Z,33.87
2018-07-17T11:11:24.667Z,33.57
2018-07-17T11:12:24.635Z,33.71
2018-07-17T11:13:24.699Z,33.63
2018-07-17T11:14:24.763Z,33.76
2018-07-17T11:15:24.717Z,33.87
2018-07-17T11:16:24.699Z,33.09
2018-07-17T11:17:24.746Z,32.92
2018-07-17T11:18:24.744Z,33.06
2018-07-17T11:19:24.830Z,33.04
2018-07-17T11:20:24.755Z,33.11
2018-07-17T11:21:24.763Z,32.89
2018-07-17T11:22:25.561Z,32.87
2018-07-17T11:23:24.804Z,33.01
2018-07-17T11:24:26.649Z,33.09
2018-07-17T11:25:24.869Z,33.15
2018-07-17T11:26:24.832Z,33.14
2018-07-17T11:27:24.986Z,33.28
2018-07-17T11:28:24.860Z,33.50
2018-07-17T11:29:24.895Z,33.47
2018-07-17T11:30:24.916Z,33.44
2018-07-17T11:31:27.738Z,33.56
2018-07-17T11:32:24.980Z,33.49
2018-07-17T11:33:24.937Z,33.32
2018-07-17T11:34:25.012Z,33.11
2018-07-17T11:35:24.979Z,33.11
2018-07-17T11:36:25.269Z,33.23
2018-07-17T11:37:25.135Z,33.35
2018-07-17T11:38:25.254Z,33.47
2018-07-17T11:39:25.068Z,33.31
2018-07-17T11:40:25.028Z,33.01
2018-07-17T11:41:25.119Z,32.99
2018-07-17T11:42:25.051Z,33.28
2018-07-17T11:43:25.072Z,33.26
2018-07-17T11:44:25.130Z,32.88
2018-07-17T11:45:25.096Z,32.59
2018-07-17T11:46:25.114Z,32.43
2018-07-17T11:47:25.175Z,32.81
2018-07-17T11:48:25.129Z,33.29
2018-07-17T11:49:25.136Z,33.53
2018-07-17T11:50:25.157Z,33.51
2018-07-17T11:51:26.175Z,33.76
2018-07-17T11:52:25.209Z,33.75
2018-07-17T11:53:25.197Z,33.61
2018-07-17T11:54:25.206Z,33.53
2018-07-17T11:55:25.229Z,33.56
2018-07-17T11:56:25.212Z,33.51
2018-07-17T11:57:25.244Z,33.31
2018-07-17T11:58:25.283Z,33.42
2018-07-17T11:59:25.467Z,33.29
2018-07-17T12:00:25.296Z,33.31
2018-07-17T12:01:25.314Z,33.04
2018-07-17T12:02:25.396Z,32.45
2018-07-17T12:03:25.313Z,32.77
2018-07-17T12:04:25.491Z,33.11
2018-07-17T12:05:25.396Z,33.26
2018-07-17T12:06:25.431Z,33.16
2018-07-17T12:07:25.343Z,33.47
2018-07-17T12:08:25.423Z,33.73
2018-07-17T12:09:25.393Z,33.82
2018-07-17T12:10:25.370Z,33.91
2018-07-17T12:11:25.989Z,33.54
2018-07-17T12:12:26.212Z,33.65
2018-07-17T12:13:25.415Z,33.57
2018-07-17T12:14:25.433Z,33.57
2018-07-17T12:15:25.432Z,33.59
2018-07-17T12:16:25.441Z,33.63
2018-07-17T12:17:25.534Z,33.61
2018-07-17T12:18:25.536Z,33.19
2018-07-17T12:19:25.507Z,32.96
2018-07-17T12:20:25.716Z,32.89
2018-07-17T12:21:25.585Z,32.87
2018-07-17T12:22:25.729Z,32.99
2018-07-17T12:23:25.604Z,32.97
2018-07-17T12:24:25.557Z,33.11
2018-07-17T12:25:25.653Z,32.88
2018-07-17T12:26:25.659Z,32.74
2018-07-17T12:27:25.714Z,32.59
2018-07-17T12:28:25.721Z,32.79
2018-07-17T12:29:25.842Z,32.66
2018-07-17T12:30:25.612Z,32.60
2018-07-17T12:31:25.601Z,32.48
2018-07-17T12:32:25.623Z,31.66
2018-07-17T12:33:47.074Z,31.95
2018-07-17T12:34:25.652Z,31.95
2018-07-17T12:35:26.263Z,31.57
2018-07-17T12:36:25.759Z,31.56
2018-07-17T12:37:25.692Z,31.68
2018-07-17T12:38:25.702Z,31.99
2018-07-17T12:39:25.737Z,31.95
2018-07-17T12:40:25.717Z,32.25
2018-07-17T12:41:25.711Z,32.50
2018-07-17T12:42:25.744Z,32.74
2018-07-17T12:43:26.614Z,32.81
2018-07-17T12:44:25.826Z,32.57
2018-07-17T12:45:25.758Z,32.66
2018-07-17T12:46:25.850Z,32.35
2018-07-17T12:47:25.800Z,32.11
2018-07-17T12:48:25.802Z,31.85
2018-07-17T12:49:25.791Z,31.99
2018-07-17T12:50:25.840Z,32.04
2018-07-17T12:51:25.894Z,32.04
2018-07-17T12:52:25.881Z,32.07
2018-07-17T12:53:26.629Z,32.26
2018-07-17T12:54:25.873Z,32.35
2018-07-17T12:55:25.881Z,32.25
2018-07-17T12:56:25.955Z,32.26
2018-07-17T12:57:25.924Z,32.51
2018-07-17T12:58:25.951Z,32.85
2018-07-17T12:59:25.955Z,33.00
2018-07-17T13:00:26.704Z,33.26
2018-07-17T13:01:25.983Z,33.38
2018-07-17T13:02:25.929Z,33.21
2018-07-17T13:03:26.623Z,32.99
2018-07-17T13:04:25.980Z,32.81
2018-07-17T13:05:25.976Z,32.65
2018-07-17T13:06:26.702Z,32.56
2018-07-17T13:07:26.007Z,32.75
2018-07-17T13:08:26.029Z,32.87
2018-07-17T13:09:26.053Z,32.62
2018-07-17T13:10:26.022Z,32.59
2018-07-17T13:11:26.082Z,32.45
2018-07-17T13:12:26.031Z,32.62
2018-07-17T13:13:26.056Z,32.63
2018-07-17T13:14:26.075Z,32.66
2018-07-17T13:15:26.093Z,32.82
2018-07-17T13:16:26.160Z,32.63
2018-07-17T13:17:26.677Z,32.62
2018-07-17T13:18:26.093Z,32.28
2018-07-17T13:19:26.103Z,32.19
2018-07-17T13:20:26.121Z,32.19
2018-07-17T13:21:26.147Z,32.26
2018-07-17T13:22:26.132Z,32.38
2018-07-17T13:23:26.136Z,32.59
2018-07-17T13:24:26.177Z,32.63
2018-07-17T13:25:26.202Z,32.38
2018-07-17T13:26:26.183Z,32.43
2018-07-17T13:27:26.228Z,32.67
2018-07-17T13:28:26.258Z,32.84
2018-07-17T13:29:26.198Z,32.78
2018-07-17T13:30:26.259Z,32.75
2018-07-17T13:31:26.330Z,32.47
2018-07-17T13:32:26.299Z,32.56
2018-07-17T13:33:26.253Z,32.50